createdAt,value
2019-03-31T00:01:29.598Z,70.70
2019-03-31T00:03:57.821Z,70.90
2019-03-31T00:06:26.052Z,71.20
2019-03-31T00:08:54.285Z,71.60
2019-03-31T00:11:22.532Z,72.30
2019-03-31T00:13:50.791Z,72.80
2019-03-31T00:16:19.016Z,72.70
2019-03-31T00:18:47.253Z,72.90
2019-03-31T00:21:15.539Z,72.90
2019-03-31T00:23:43.779Z,73.30
2019-03-31T00:26:12.018Z,73.30
2019-03-31T00:28:40.266Z,73.20
2019-03-31T00:31:21.181Z,73.30
2019-03-31T00:33:38.516Z,73.90
2019-03-31T00:36:06.748Z,73.90
2019-03-31T00:38:34.977Z,74.30
2019-03-31T00:41:03.204Z,74.50
2019-03-31T00:43:31.619Z,75.00
2019-03-31T00:45:59.846Z,74.70
2019-03-31T00:48:28.102Z,74.60
2019-03-31T00:50:56.342Z,74.90
2019-03-31T00:53:24.579Z,75.20
2019-03-31T00:55:52.816Z,75.60
2019-03-31T00:58:21.043Z,76.00
2019-03-31T01:00:50.924Z,75.90
2019-03-31T01:03:19.394Z,76.50
2019-03-31T01:05:47.633Z,76.70
2019-03-31T01:08:16.136Z,77.00
2019-03-31T01:10:44.356Z,77.90
2019-03-31T01:13:12.593Z,78.20
2019-03-31T01:15:40.826Z,78.50
2019-03-31T01:18:09.060Z,78.40
2019-03-31T01:20:37.475Z,78.40
2019-03-31T01:23:06.682Z,78.70
2019-03-31T01:25:34.920Z,78.40
2019-03-31T01:28:03.153Z,78.10
2019-03-31T01:30:31.380Z,78.00
2019-03-31T01:32:59.989Z,78.10
2019-03-31T01:35:28.724Z,78.50
2019-03-31T01:37:56.983Z,78.50
2019-03-31T01:40:25.381Z,77.80
2019-03-31T01:42:53.618Z,77.50
2019-03-31T01:45:21.849Z,77.20
2019-03-31T01:47:50.115Z,76.60
2019-03-31T01:50:18.600Z,76.60
2019-03-31T01:52:46.845Z,76.10
2019-03-31T01:55:15.074Z,75.70
2019-03-31T01:57:43.302Z,75.50
2019-03-31T02:00:29.445Z,75.90
2019-03-31T02:02:57.751Z,75.80
2019-03-31T02:05:25.994Z,75.10
2019-03-31T02:07:54.226Z,75.70
2019-03-31T02:10:22.461Z,75.80
2019-03-31T02:12:50.752Z,75.80
2019-03-31T02:15:18.988Z,75.70
2019-03-31T02:17:47.208Z,76.10
2019-03-31T02:20:15.438Z,76.50
2019-03-31T02:22:43.680Z,77.40
2019-03-31T02:25:11.910Z,76.90
2019-03-31T02:27:40.178Z,76.60
2019-03-31T02:30:08.405Z,76.60
2019-03-31T02:32:36.635Z,76.80
2019-03-31T02:35:05.521Z,76.60
2019-03-31T02:37:33.744Z,76.90
2019-03-31T02:40:01.994Z,77.40
2019-03-31T02:42:30.235Z,77.60
2019-03-31T02:44:58.521Z,77.80
2019-03-31T02:47:26.761Z,77.40
2019-03-31T02:49:54.983Z,76.90
2019-03-31T02:52:23.225Z,76.20
2019-03-31T02:54:51.444Z,76.30
2019-03-31T02:57:20.914Z,76.60
2019-03-31T02:59:50.328Z,76.90
2019-03-31T03:02:18.544Z,76.50
2019-03-31T03:04:46.775Z,76.20
2019-03-31T03:07:15.002Z,75.60
2019-03-31T03:09:43.277Z,75.30
2019-03-31T03:12:11.522Z,75.30
2019-03-31T03:14:39.748Z,75.60
2019-03-31T03:17:07.978Z,75.70
2019-03-31T03:19:36.209Z,75.30
2019-03-31T03:22:04.442Z,75.50
2019-03-31T03:24:32.688Z,76.50
2019-03-31T03:27:00.905Z,76.50
2019-03-31T03:29:29.140Z,76.30
2019-03-31T03:31:57.409Z,76.30
2019-03-31T03:34:25.783Z,76.70
2019-03-31T03:36:54.020Z,77.00
2019-03-31T03:39:22.251Z,77.50
2019-03-31T03:41:50.472Z,77.80
2019-03-31T03:44:18.714Z,77.90
2019-03-31T03:46:46.930Z,77.80
2019-03-31T03:49:15.231Z,78.10
2019-03-31T03:51:43.678Z,78.10
2019-03-31T03:54:11.927Z,78.50
2019-03-31T03:56:40.226Z,78.50
2019-03-31T03:59:08.445Z,78.40
2019-03-31T04:01:36.749Z,78.20
2019-03-31T04:04:05.131Z,78.40
2019-03-31T04:06:33.384Z,78.70
2019-03-31T04:09:01.615Z,78.70
2019-03-31T04:11:29.833Z,79.00
2019-03-31T04:13:58.081Z,78.70
2019-03-31T04:16:26.332Z,79.90
2019-03-31T04:18:54.565Z,79.00
2019-03-31T04:21:22.793Z,79.00
2019-03-31T04:23:51.018Z,79.20
2019-03-31T04:26:19.269Z,79.40
2019-03-31T04:28:47.549Z,79.90
2019-03-31T04:31:15.889Z,80.60
2019-03-31T04:33:51.529Z,80.80
2019-03-31T04:36:14.077Z,81.10
2019-03-31T04:38:42.351Z,80.80
2019-03-31T04:41:10.584Z,80.70
2019-03-31T04:43:38.885Z,81.40
2019-03-31T04:46:07.106Z,81.90
2019-03-31T04:48:35.346Z,81.40
2019-03-31T04:51:03.586Z,81.40
2019-03-31T04:53:31.810Z,80.80
2019-03-31T04:56:00.053Z,80.90
2019-03-31T04:58:28.279Z,80.80
2019-03-31T05:00:56.511Z,80.80
2019-03-31T05:03:24.752Z,80.90
2019-03-31T05:05:52.977Z,81.30
2019-03-31T05:08:21.212Z,81.80
2019-03-31T05:10:49.435Z,82.20
2019-03-31T05:13:17.662Z,82.00
2019-03-31T05:15:45.910Z,82.00
2019-03-31T05:18:14.137Z,81.80
2019-03-31T05:20:42.469Z,81.50
2019-03-31T05:23:10.821Z,81.70
2019-03-31T05:25:39.076Z,81.70
2019-03-31T05:28:07.322Z,81.60
2019-03-31T05:30:35.621Z,81.70
2019-03-31T05:33:03.926Z,81.50
2019-03-31T05:35:32.154Z,81.50
2019-03-31T05:38:00.369Z,82.10
2019-03-31T05:40:30.651Z,82.00
2019-03-31T05:42:58.570Z,82.40
2019-03-31T05:45:26.817Z,83.00
2019-03-31T05:47:55.058Z,83.10
2019-03-31T05:50:23.277Z,83.10
2019-03-31T05:52:51.526Z,82.60
2019-03-31T05:55:19.751Z,82.10
2019-03-31T05:57:47.987Z,81.40
2019-03-31T06:00:19.493Z,80.90
2019-03-31T06:02:47.725Z,80.60
2019-03-31T06:05:15.970Z,80.10
2019-03-31T06:07:44.191Z,79.90
2019-03-31T06:10:12.441Z,79.60
2019-03-31T06:12:40.672Z,79.70
2019-03-31T06:15:08.904Z,79.10
2019-03-31T06:17:37.152Z,78.40
2019-03-31T06:20:06.695Z,77.90
2019-03-31T06:22:34.941Z,77.50
2019-03-31T06:25:03.392Z,77.20
2019-03-31T06:27:31.709Z,76.30
2019-03-31T06:29:59.957Z,75.60
2019-03-31T06:32:28.183Z,75.00
2019-03-31T06:34:56.475Z,74.70
2019-03-31T06:37:24.715Z,73.40
2019-03-31T06:39:52.932Z,73.30
2019-03-31T06:42:21.251Z,72.90
2019-03-31T06:44:49.568Z,72.40
2019-03-31T06:47:17.820Z,72.00
2019-03-31T06:49:46.570Z,71.10
2019-03-31T06:52:14.861Z,70.70
2019-03-31T06:54:43.102Z,70.30
2019-03-31T06:57:11.339Z,69.20
2019-03-31T06:59:39.566Z,68.70
2019-03-31T07:02:07.789Z,67.40
2019-03-31T07:04:36.035Z,67.40
2019-03-31T07:07:04.254Z,66.80
2019-03-31T07:09:32.477Z,65.70
2019-03-31T07:12:00.713Z,65.10
2019-03-31T07:14:28.925Z,64.60
2019-03-31T07:16:57.150Z,64.00
2019-03-31T07:19:25.389Z,63.20
2019-03-31T07:21:53.629Z,62.20
2019-03-31T07:24:21.865Z,62.30
2019-03-31T07:26:50.120Z,62.20
2019-03-31T07:29:18.397Z,60.90
2019-03-31T07:31:46.625Z,60.70
2019-03-31T07:34:14.869Z,60.10
2019-03-31T07:36:43.340Z,59.70
2019-03-31T07:39:11.565Z,59.70
2019-03-31T07:41:40.222Z,58.90
2019-03-31T07:44:08.549Z,58.80
2019-03-31T07:46:36.774Z,58.40
2019-03-31T07:49:05.082Z,57.80
2019-03-31T07:51:33.353Z,57.50
2019-03-31T07:54:01.855Z,57.60
2019-03-31T07:56:30.082Z,56.30
2019-03-31T07:58:58.306Z,56.30
2019-03-31T08:01:26.561Z,56.10
2019-03-31T08:03:54.789Z,55.60
2019-03-31T08:06:23.024Z,55.30
2019-03-31T08:08:53.309Z,54.50
2019-03-31T08:11:21.400Z,54.80
2019-03-31T08:13:49.638Z,53.90
2019-03-31T08:16:17.873Z,53.60
2019-03-31T08:18:46.101Z,53.80
2019-03-31T08:21:14.349Z,52.50
2019-03-31T08:23:42.599Z,51.80
2019-03-31T08:26:10.848Z,51.60
2019-03-31T08:28:39.101Z,51.20
2019-03-31T08:31:07.321Z,51.10
2019-03-31T08:33:35.573Z,50.30
2019-03-31T08:36:03.801Z,50.00
2019-03-31T08:38:32.044Z,50.10
2019-03-31T08:41:00.282Z,49.90
2019-03-31T08:43:28.519Z,49.70
2019-03-31T08:45:56.757Z,49.40
2019-03-31T08:48:25.008Z,48.70
2019-03-31T08:50:53.245Z,48.10
2019-03-31T08:53:21.490Z,47.30
2019-03-31T08:55:49.732Z,48.30
2019-03-31T08:58:17.974Z,47.60
2019-03-31T09:00:47.842Z,47.20
2019-03-31T09:03:16.093Z,47.70
2019-03-31T09:05:44.325Z,46.30
2019-03-31T09:08:12.591Z,45.50
2019-03-31T09:10:40.865Z,45.80
2019-03-31T09:13:09.125Z,44.80
2019-03-31T09:15:37.353Z,44.10
2019-03-31T09:18:05.597Z,44.70
2019-03-31T09:20:33.889Z,43.70
2019-03-31T09:23:02.160Z,43.00
2019-03-31T09:25:30.411Z,42.90
2019-03-31T09:27:58.643Z,42.90
2019-03-31T09:30:26.896Z,42.90
2019-03-31T09:32:55.129Z,42.50
2019-03-31T09:35:23.364Z,42.30
2019-03-31T09:37:51.611Z,43.00
2019-03-31T09:40:19.836Z,42.60
2019-03-31T09:42:48.080Z,41.50
2019-03-31T09:45:16.354Z,40.10
2019-03-31T09:47:44.625Z,39.90
2019-03-31T09:50:16.981Z,40.70
2019-03-31T09:52:43.866Z,38.70
2019-03-31T09:55:12.102Z,39.30
2019-03-31T09:57:40.353Z,38.50
2019-03-31T10:00:36.738Z,38.60
2019-03-31T10:03:04.969Z,38.60
2019-03-31T10:05:33.214Z,37.90
2019-03-31T10:08:01.496Z,38.40
2019-03-31T10:10:31.291Z,38.30
2019-03-31T10:13:00.176Z,37.70
2019-03-31T10:15:28.456Z,37.00
2019-03-31T10:17:56.692Z,37.90
2019-03-31T10:20:24.934Z,35.80
2019-03-31T10:22:53.160Z,35.80
2019-03-31T10:25:21.399Z,36.00
2019-03-31T10:27:49.644Z,35.20
2019-03-31T10:30:34.400Z,34.10
2019-03-31T10:33:02.650Z,34.90
2019-03-31T10:35:30.876Z,34.40
2019-03-31T10:37:59.133Z,34.40
2019-03-31T10:40:27.368Z,35.00
2019-03-31T10:42:55.604Z,35.30
2019-03-31T10:45:23.840Z,34.80
2019-03-31T10:47:52.072Z,34.50
2019-03-31T10:50:20.366Z,34.70
2019-03-31T10:52:49.750Z,34.30
2019-03-31T10:55:17.980Z,34.70
2019-03-31T10:57:46.225Z,33.30
2019-03-31T11:00:14.472Z,33.70
2019-03-31T11:02:42.717Z,32.90
2019-03-31T11:05:10.957Z,33.50
2019-03-31T11:07:39.189Z,33.40
2019-03-31T11:10:07.437Z,34.00
2019-03-31T11:12:35.672Z,34.50
2019-03-31T11:15:05.038Z,33.20
2019-03-31T11:17:33.284Z,30.70
2019-03-31T11:20:01.525Z,31.40
2019-03-31T11:22:43.764Z,32.60
2019-03-31T11:25:20.680Z,32.60
2019-03-31T11:27:43.881Z,33.20
2019-03-31T11:30:11.953Z,33.60
2019-03-31T11:32:40.177Z,32.60
2019-03-31T11:35:08.427Z,32.50
2019-03-31T11:37:36.675Z,32.40
2019-03-31T11:40:06.645Z,32.50
2019-03-31T11:42:35.007Z,32.60
2019-03-31T11:45:04.589Z,32.00
2019-03-31T11:47:32.852Z,31.50
2019-03-31T11:50:01.104Z,32.10
2019-03-31T11:52:29.440Z,32.10
2019-03-31T11:54:57.790Z,31.60
2019-03-31T11:57:26.010Z,31.50
2019-03-31T11:59:54.237Z,30.40
2019-03-31T12:02:27.336Z,29.70
2019-03-31T12:04:53.801Z,29.80
2019-03-31T12:07:28.312Z,30.80
2019-03-31T12:09:53.650Z,30.10
2019-03-31T12:12:21.894Z,30.10
2019-03-31T12:15:00.261Z,28.70
2019-03-31T12:17:20.094Z,29.50
2019-03-31T12:19:48.943Z,29.30
2019-03-31T12:22:17.364Z,29.90
2019-03-31T12:24:45.608Z,30.10
2019-03-31T12:27:13.832Z,29.40
2019-03-31T12:29:42.065Z,29.50
2019-03-31T12:32:10.316Z,28.60
2019-03-31T12:34:38.586Z,27.10
2019-03-31T12:37:06.831Z,28.70
2019-03-31T12:39:36.175Z,28.90
2019-03-31T12:42:04.686Z,29.80
2019-03-31T12:44:32.924Z,29.20
2019-03-31T12:47:01.782Z,28.80
2019-03-31T12:49:30.079Z,29.20
2019-03-31T12:51:58.301Z,29.40
2019-03-31T12:54:26.593Z,29.10
2019-03-31T12:56:54.849Z,28.90
2019-03-31T12:59:23.077Z,28.90
2019-03-31T13:01:51.324Z,29.20
2019-03-31T13:04:19.576Z,29.00
2019-03-31T13:06:47.886Z,28.80
2019-03-31T13:09:16.116Z,28.10
2019-03-31T13:11:44.364Z,28.10
2019-03-31T13:14:12.625Z,27.80
2019-03-31T13:16:40.841Z,28.00
2019-03-31T13:19:09.085Z,27.40
2019-03-31T13:21:37.336Z,27.50
2019-03-31T13:24:05.570Z,26.80
2019-03-31T13:26:33.817Z,27.70
2019-03-31T13:29:02.045Z,27.50
2019-03-31T13:31:30.285Z,26.80
2019-03-31T13:33:58.550Z,27.50
2019-03-31T13:36:26.777Z,26.80
2019-03-31T13:38:55.026Z,26.80
2019-03-31T13:41:24.373Z,26.80
2019-03-31T13:43:52.605Z,27.40
2019-03-31T13:46:20.931Z,26.70
2019-03-31T13:48:49.171Z,26.30
2019-03-31T13:51:17.443Z,26.50
2019-03-31T13:53:45.672Z,26.30
2019-03-31T13:56:14.354Z,25.60
2019-03-31T13:58:42.925Z,25.40
2019-03-31T14:01:11.280Z,24.80
2019-03-31T14:03:39.589Z,23.40
2019-03-31T14:06:07.812Z,28.80
2019-03-31T14:08:36.041Z,22.10
2019-03-31T14:11:04.300Z,22.10
2019-03-31T14:13:32.534Z,21.60
2019-03-31T14:16:00.772Z,21.30
2019-03-31T14:18:29.007Z,21.90
2019-03-31T14:20:57.248Z,21.60
2019-03-31T14:23:25.484Z,21.90
2019-03-31T14:25:53.713Z,22.40
2019-03-31T14:28:21.964Z,22.10
2019-03-31T14:30:50.200Z,21.70
2019-03-31T14:33:18.449Z,22.20
2019-03-31T14:35:46.688Z,20.80
2019-03-31T14:38:14.926Z,21.10
2019-03-31T14:40:43.195Z,22.30
2019-03-31T14:43:11.461Z,21.60
2019-03-31T14:45:39.689Z,21.10
2019-03-31T14:48:07.934Z,20.20
2019-03-31T14:50:37.406Z,20.80
2019-03-31T14:53:05.651Z,20.70
2019-03-31T14:55:33.881Z,20.80
2019-03-31T14:58:02.119Z,21.00
2019-03-31T15:00:30.529Z,21.30
2019-03-31T15:02:58.764Z,21.50
2019-03-31T15:05:27.009Z,22.00
2019-03-31T15:07:58.307Z,22.90
2019-03-31T15:10:25.262Z,23.00
2019-03-31T15:12:53.501Z,22.40
2019-03-31T15:15:21.729Z,23.60
2019-03-31T15:17:49.983Z,23.30
2019-03-31T15:20:18.228Z,22.70
2019-03-31T15:22:46.469Z,23.10
2019-03-31T15:25:14.718Z,23.60
2019-03-31T15:27:43.543Z,23.60
2019-03-31T15:30:11.836Z,23.90
2019-03-31T15:32:40.069Z,23.50
2019-03-31T15:35:08.303Z,23.40
2019-03-31T15:37:36.587Z,23.10
2019-03-31T15:40:06.241Z,22.40
2019-03-31T15:42:34.564Z,21.60
2019-03-31T15:45:02.878Z,22.50
2019-03-31T15:47:31.129Z,22.50
2019-03-31T15:49:59.368Z,22.80
2019-03-31T15:52:27.597Z,23.90
2019-03-31T15:54:55.876Z,24.20
2019-03-31T15:57:24.185Z,24.60
2019-03-31T15:59:55.862Z,25.10
2019-03-31T16:02:25.746Z,25.20
2019-03-31T16:04:53.993Z,25.80
2019-03-31T16:07:22.241Z,26.40
2019-03-31T16:09:50.487Z,26.50
2019-03-31T16:12:18.717Z,26.80
2019-03-31T16:14:46.964Z,25.90
2019-03-31T16:17:15.212Z,26.20
2019-03-31T16:19:43.465Z,26.40
2019-03-31T16:22:11.719Z,26.80
2019-03-31T16:24:41.606Z,26.70
2019-03-31T16:27:09.866Z,27.00
2019-03-31T16:29:38.117Z,27.70
2019-03-31T16:32:06.361Z,27.90
2019-03-31T16:34:34.586Z,27.90
2019-03-31T16:37:02.847Z,29.00
2019-03-31T16:39:37.516Z,29.00
2019-03-31T16:42:01.046Z,28.90
2019-03-31T16:44:29.293Z,29.10
2019-03-31T16:46:57.520Z,29.50
2019-03-31T16:49:25.757Z,30.30
2019-03-31T16:51:54.080Z,31.30
2019-03-31T16:54:22.312Z,31.10
2019-03-31T16:56:50.561Z,31.90
2019-03-31T16:59:18.805Z,32.40
2019-03-31T17:01:47.040Z,34.70
2019-03-31T17:04:15.281Z,34.20
2019-03-31T17:06:43.520Z,34.40
2019-03-31T17:09:11.764Z,34.80
2019-03-31T17:11:39.993Z,35.00
2019-03-31T17:14:08.230Z,35.10
2019-03-31T17:16:36.488Z,35.10
2019-03-31T17:19:04.727Z,35.70
2019-03-31T17:21:32.978Z,35.70
2019-03-31T17:24:01.210Z,35.70
2019-03-31T17:26:29.445Z,36.10
2019-03-31T17:28:57.690Z,35.90
2019-03-31T17:31:25.951Z,36.00
2019-03-31T17:33:54.215Z,36.50
2019-03-31T17:36:25.557Z,36.40
2019-03-31T17:38:53.862Z,36.60
2019-03-31T17:41:22.184Z,37.00
2019-03-31T17:43:50.456Z,37.30
2019-03-31T17:46:18.699Z,37.50
2019-03-31T17:48:46.934Z,37.80
2019-03-31T17:51:16.803Z,38.00
2019-03-31T17:53:45.043Z,38.20
2019-03-31T17:56:13.312Z,38.30
2019-03-31T17:58:41.565Z,38.70
2019-03-31T18:01:09.793Z,38.90
2019-03-31T18:03:38.030Z,38.90
2019-03-31T18:06:06.296Z,39.00
2019-03-31T18:08:34.542Z,39.30
2019-03-31T18:11:04.603Z,39.30
2019-03-31T18:13:32.824Z,39.60
2019-03-31T18:16:01.064Z,40.10
2019-03-31T18:18:29.311Z,40.30
2019-03-31T18:20:57.576Z,40.40
2019-03-31T18:23:25.880Z,40.50
2019-03-31T18:25:54.258Z,40.50
2019-03-31T18:28:22.830Z,40.80
2019-03-31T18:30:51.807Z,41.00
2019-03-31T18:33:20.531Z,41.30
2019-03-31T18:35:50.014Z,41.60
2019-03-31T18:38:19.785Z,42.00
2019-03-31T18:40:49.838Z,42.00
2019-03-31T18:43:19.390Z,41.80
2019-03-31T18:45:49.105Z,42.00
2019-03-31T18:48:19.137Z,43.00
2019-03-31T18:50:48.944Z,42.70
2019-03-31T18:53:20.114Z,42.90
2019-03-31T18:56:07.690Z,42.60
2019-03-31T18:58:38.949Z,42.90
2019-03-31T19:01:22.540Z,42.90
2019-03-31T19:04:03.236Z,43.00
2019-03-31T19:06:34.794Z,42.90
2019-03-31T19:09:29.896Z,43.20
2019-03-31T19:12:20.084Z,43.40
2019-03-31T19:14:51.318Z,43.60
2019-03-31T19:17:28.618Z,43.80
2019-03-31T19:20:02.525Z,43.90
2019-03-31T19:22:39.666Z,44.10
2019-03-31T19:25:22.933Z,44.20
2019-03-31T19:27:56.946Z,44.60
2019-03-31T19:30:30.956Z,45.00
2019-03-31T19:33:17.980Z,44.70
2019-03-31T19:36:07.852Z,45.50
2019-03-31T19:38:56.225Z,45.50
2019-03-31T19:41:43.730Z,45.70
2019-03-31T19:44:24.119Z,46.00
2019-03-31T19:46:55.377Z,46.00
2019-03-31T19:49:32.837Z,46.30
2019-03-31T19:52:06.444Z,46.20
2019-03-31T19:54:53.546Z,46.40
2019-03-31T19:57:31.136Z,47.00
2019-03-31T20:00:18.870Z,47.00
2019-03-31T20:02:59.433Z,47.30
2019-03-31T20:05:42.489Z,48.00
2019-03-31T20:08:20.146Z,50.00
2019-03-31T20:10:51.346Z,50.40
2019-03-31T20:13:28.419Z,51.10
2019-03-31T20:16:02.898Z,50.90
2019-03-31T20:18:40.393Z,51.20
2019-03-31T20:21:31.419Z,51.10
2019-03-31T20:24:11.302Z,51.90
2019-03-31T20:26:42.590Z,52.60
2019-03-31T20:29:13.839Z,51.70
2019-03-31T20:31:57.679Z,51.20
2019-03-31T20:34:34.384Z,51.30
2019-03-31T20:37:22.289Z,51.10
2019-03-31T20:39:57.025Z,52.70
2019-03-31T20:42:27.714Z,52.40
2019-03-31T20:44:56.022Z,53.80
2019-03-31T20:47:24.310Z,54.90
2019-03-31T20:49:52.670Z,54.70
2019-03-31T20:52:20.976Z,54.60
2019-03-31T20:54:49.215Z,54.40
2019-03-31T20:57:17.465Z,55.20
2019-03-31T20:59:45.793Z,55.00
2019-03-31T21:02:14.229Z,55.60
2019-03-31T21:04:42.469Z,56.30
2019-03-31T21:07:10.702Z,55.80
2019-03-31T21:09:45.146Z,55.30
2019-03-31T21:12:08.883Z,55.60
2019-03-31T21:14:37.109Z,55.70
2019-03-31T21:17:05.347Z,56.20
2019-03-31T21:19:33.587Z,55.90
2019-03-31T21:22:01.816Z,56.10
2019-03-31T21:24:30.043Z,56.10
2019-03-31T21:26:58.285Z,56.30
2019-03-31T21:29:26.513Z,56.60
2019-03-31T21:31:54.780Z,56.60
2019-03-31T21:34:22.992Z,56.80
2019-03-31T21:36:51.233Z,56.60
2019-03-31T21:39:19.468Z,56.70
2019-03-31T21:41:47.697Z,56.40
2019-03-31T21:44:15.946Z,56.20
2019-03-31T21:46:44.198Z,56.20
2019-03-31T21:49:12.418Z,55.80
2019-03-31T21:51:40.661Z,55.10
2019-03-31T21:54:08.888Z,55.30
2019-03-31T21:56:37.130Z,55.40
2019-03-31T21:59:05.363Z,55.50
2019-03-31T22:01:33.592Z,55.90
2019-03-31T22:04:01.839Z,56.20
2019-03-31T22:06:30.101Z,56.70
2019-03-31T22:08:58.347Z,56.90
2019-03-31T22:11:26.568Z,57.00
2019-03-31T22:13:54.792Z,57.30
2019-03-31T22:16:25.785Z,57.50
2019-03-31T22:18:54.012Z,57.80
2019-03-31T22:21:22.257Z,58.30
2019-03-31T22:23:57.697Z,58.60
2019-03-31T22:26:20.495Z,59.00
2019-03-31T22:28:48.863Z,59.10
2019-03-31T22:31:17.246Z,59.20
2019-03-31T22:33:45.507Z,59.50
2019-03-31T22:36:23.349Z,59.70
2019-03-31T22:38:52.428Z,59.80
2019-03-31T22:41:20.749Z,60.00
2019-03-31T22:43:49.450Z,60.20
2019-03-31T22:46:18.038Z,60.60
2019-03-31T22:48:46.265Z,61.20
2019-03-31T22:51:14.496Z,61.20
2019-03-31T22:53:42.722Z,61.60
2019-03-31T22:56:10.958Z,61.80
2019-03-31T22:58:39.197Z,62.10
2019-03-31T23:01:07.505Z,62.20
2019-03-31T23:03:35.741Z,63.00
2019-03-31T23:06:03.966Z,63.00
2019-03-31T23:08:32.203Z,63.60
2019-03-31T23:11:00.429Z,63.90
2019-03-31T23:13:28.659Z,64.50
2019-03-31T23:15:56.907Z,64.80
2019-03-31T23:18:25.132Z,65.10
2019-03-31T23:20:53.357Z,65.40
2019-03-31T23:23:21.597Z,65.80
2019-03-31T23:25:49.820Z,66.10
2019-03-31T23:28:18.060Z,66.10
2019-03-31T23:30:46.290Z,66.40
2019-03-31T23:33:14.516Z,66.50
2019-03-31T23:35:42.752Z,67.10
2019-03-31T23:38:10.977Z,67.20
2019-03-31T23:40:39.210Z,67.60
2019-03-31T23:43:07.442Z,67.80
2019-03-31T23:45:35.665Z,68.00
2019-03-31T23:48:03.907Z,68.30
2019-03-31T23:50:32.131Z,68.40
2019-03-31T23:53:00.385Z,68.60
2019-03-31T23:55:28.610Z,68.90
2019-03-31T23:57:56.840Z,68.90
